sensor_id;sensor_type;location;lat;lon;timestamp;temperature;humidity
23323;DHT22;11833;52.554;13.554;2023-02-21T01:03:08;8.70;99.90
23323;DHT22;11833;52.554;13.554;2023-02-21T01:05:53;8.60;99.90
23323;DHT22;11833;52.554;13.554;2023-02-21T01:08:43;8.70;99.90
23323;DHT22;11833;52.554;13.554;2023-02-21T01:11:28;8.60;99.90
23323;DHT22;11833;52.554;13.554;2023-02-21T01:14:13;8.70;99.90
23323;DHT22;11833;52.554;13.554;2023-02-21T01:16:57;8.70;99.90
23323;DHT22;11833;52.554;13.554;2023-02-21T01:19:41;8.70;99.90
23323;DHT22;11833;52.554;13.554;2023-02-21T01:22:26;8.60;99.90
23323;DHT22;11833;52.554;13.554;2023-02-21T01:25:11;8.60;99.90
23323;DHT22;11833;52.554;13.554;2023-02-21T01:27:56;8.60;99.90
23323;DHT22;11833;52.554;13.554;2023-02-21T01:30:40;8.70;99.90
23323;DHT22;11833;52.554;13.554;2023-02-21T01:33:24;8.70;99.90
23323;DHT22;11833;52.554;13.554;2023-02-21T01:36:09;8.70;99.90
23323;DHT22;11833;52.554;13.554;2023-02-21T01:38:53;8.70;99.90
23323;DHT22;11833;52.554;13.554;2023-02-21T01:41:38;8.70;99.90
23323;DHT22;11833;52.554;13.554;2023-02-21T01:44:33;8.70;99.90
23323;DHT22;11833;52.554;13.554;2023-02-21T01:47:20;8.70;99.90
23323;DHT22;11833;52.554;13.554;2023-02-21T01:53:04;8.80;99.90
23323;DHT22;11833;52.554;13.554;2023-02-21T01:55:55;8.80;99.90
23323;DHT22;11833;52.554;13.554;2023-02-21T01:58:40;8.80;99.90
23323;DHT22;11833;52.554;13.554;2023-02-21T02:04:38;8.90;99.90
23323;DHT22;11833;52.554;13.554;2023-02-21T02:07:23;8.90;99.90
23323;DHT22;11833;52.554;13.554;2023-02-21T02:10:08;8.80;99.90
23323;DHT22;11833;52.554;13.554;2023-02-21T02:13:24;8.80;99.90
23323;DHT22;11833;52.554;13.554;2023-02-21T02:18:46;9.00;99.90
23323;DHT22;11833;52.554;13.554;2023-02-21T02:24:19;8.80;99.90
23323;DHT22;11833;52.554;13.554;2023-02-21T02:30:36;8.90;99.90
23323;DHT22;11833;52.554;13.554;2023-02-21T02:39:33;8.80;99.90
23323;DHT22;11833;52.554;13.554;2023-02-21T02:42:14;8.90;99.90
23323;DHT22;11833;52.554;13.554;2023-02-21T02:44:50;8.90;99.90
23323;DHT22;11833;52.554;13.554;2023-02-21T02:47:25;8.90;99.90
23323;DHT22;11833;52.554;13.554;2023-02-21T02:49:54;8.90;99.90
23323;DHT22;11833;52.554;13.554;2023-02-21T02:52:21;8.90;99.90
23323;DHT22;11833;52.554;13.554;2023-02-21T02:55:02;9.00;99.90
23323;DHT22;11833;52.554;13.554;2023-02-21T02:57:31;9.00;99.90
23323;DHT22;11833;52.554;13.554;2023-02-21T03:00:06;9.00;99.90
23323;DHT22;11833;52.554;13.554;2023-02-21T03:02:52;9.00;99.90
23323;DHT22;11833;52.554;13.554;2023-02-21T03:08:25;9.00;99.90
23323;DHT22;11833;52.554;13.554;2023-02-21T03:11:09;9.00;99.90
23323;DHT22;11833;52.554;13.554;2023-02-21T03:14:04;9.00;99.90
23323;DHT22;11833;52.554;13.554;2023-02-21T03:16:38;9.10;99.90
23323;DHT22;11833;52.554;13.554;2023-02-21T03:19:19;9.10;99.90
23323;DHT22;11833;52.554;13.554;2023-02-21T03:21:53;9.10;99.90
23323;DHT22;11833;52.554;13.554;2023-02-21T03:24:22;9.10;99.90
23323;DHT22;11833;52.554;13.554;2023-02-21T03:26:55;9.10;99.90
23323;DHT22;11833;52.554;13.554;2023-02-21T03:29:24;9.20;99.90
23323;DHT22;11833;52.554;13.554;2023-02-21T03:31:55;9.10;99.90
23323;DHT22;11833;52.554;13.554;2023-02-21T03:34:35;9.20;99.90
23323;DHT22;11833;52.554;13.554;2023-02-21T03:37:06;9.20;99.90
23323;DHT22;11833;52.554;13.554;2023-02-21T03:39:34;9.10;99.90
23323;DHT22;11833;52.554;13.554;2023-02-21T03:41:59;9.10;99.90
23323;DHT22;11833;52.554;13.554;2023-02-21T03:44:25;9.10;99.90
23323;DHT22;11833;52.554;13.554;2023-02-21T03:46:51;9.30;99.90
23323;DHT22;11833;52.554;13.554;2023-02-21T03:49:16;9.20;99.90
23323;DHT22;11833;52.554;13.554;2023-02-21T03:51:42;9.30;99.90
23323;DHT22;11833;52.554;13.554;2023-02-21T03:54:08;9.30;99.90
23323;DHT22;11833;52.554;13.554;2023-02-21T03:56:34;9.30;99.90
23323;DHT22;11833;52.554;13.554;2023-02-21T03:58:59;9.20;99.90
23323;DHT22;11833;52.554;13.554;2023-02-21T04:01:25;9.20;99.90
23323;DHT22;11833;52.554;13.554;2023-02-21T04:03:51;9.10;99.90
23323;DHT22;11833;52.554;13.554;2023-02-21T04:06:17;9.10;99.90
23323;DHT22;11833;52.554;13.554;2023-02-21T04:08:42;9.00;99.90
23323;DHT22;11833;52.554;13.554;2023-02-21T04:11:08;9.00;99.90
23323;DHT22;11833;52.554;13.554;2023-02-21T04:13:34;9.10;99.90
23323;DHT22;11833;52.554;13.554;2023-02-21T04:15:59;9.10;99.90
23323;DHT22;11833;52.554;13.554;2023-02-21T04:18:25;9.10;99.90
23323;DHT22;11833;52.554;13.554;2023-02-21T04:20:51;9.10;99.90
23323;DHT22;11833;52.554;13.554;2023-02-21T04:23:18;9.10;99.90
23323;DHT22;11833;52.554;13.554;2023-02-21T04:25:45;9.10;99.90
23323;DHT22;11833;52.554;13.554;2023-02-21T04:28:11;9.10;99.90
23323;DHT22;11833;52.554;13.554;2023-02-21T04:30:37;9.10;99.90
23323;DHT22;11833;52.554;13.554;2023-02-21T04:33:03;9.10;99.90
23323;DHT22;11833;52.554;13.554;2023-02-21T04:35:29;9.10;99.90
23323;DHT22;11833;52.554;13.554;2023-02-21T04:37:54;9.10;99.90
23323;DHT22;11833;52.554;13.554;2023-02-21T04:40:20;9.10;99.90
23323;DHT22;11833;52.554;13.554;2023-02-21T04:42:46;9.10;99.90
23323;DHT22;11833;52.554;13.554;2023-02-21T04:45:12;9.20;99.90
23323;DHT22;11833;52.554;13.554;2023-02-21T04:47:38;9.20;99.90
23323;DHT22;11833;52.554;13.554;2023-02-21T04:50:04;9.10;99.90
23323;DHT22;11833;52.554;13.554;2023-02-21T04:52:31;9.10;99.90
23323;DHT22;11833;52.554;13.554;2023-02-21T04:54:57;9.00;99.90
23323;DHT22;11833;52.554;13.554;2023-02-21T04:57:23;9.00;99.90
23323;DHT22;11833;52.554;13.554;2023-02-21T04:59:58;9.00;99.90
23323;DHT22;11833;52.554;13.554;2023-02-21T05:02:25;9.00;99.90
23323;DHT22;11833;52.554;13.554;2023-02-21T05:04:51;9.00;99.90
23323;DHT22;11833;52.554;13.554;2023-02-21T05:07:16;8.90;99.90
23323;DHT22;11833;52.554;13.554;2023-02-21T05:09:42;9.00;99.90
23323;DHT22;11833;52.554;13.554;2023-02-21T05:12:08;9.00;99.90
23323;DHT22;11833;52.554;13.554;2023-02-21T05:14:39;8.90;99.90
23323;DHT22;11833;52.554;13.554;2023-02-21T05:17:06;8.90;99.90
23323;DHT22;11833;52.554;13.554;2023-02-21T05:19:32;8.90;99.90
23323;DHT22;11833;52.554;13.554;2023-02-21T05:22:00;8.90;99.90
23323;DHT22;11833;52.554;13.554;2023-02-21T05:24:28;8.80;99.90
23323;DHT22;11833;52.554;13.554;2023-02-21T05:26:56;8.80;99.90
23323;DHT22;11833;52.554;13.554;2023-02-21T05:29:22;8.80;99.90
23323;DHT22;11833;52.554;13.554;2023-02-21T05:31:48;8.80;99.90
23323;DHT22;11833;52.554;13.554;2023-02-21T05:34:15;8.90;99.90
23323;DHT22;11833;52.554;13.554;2023-02-21T05:36:43;8.90;99.90
23323;DHT22;11833;52.554;13.554;2023-02-21T05:39:09;8.90;99.90
23323;DHT22;11833;52.554;13.554;2023-02-21T05:41:35;8.80;99.90
23323;DHT22;11833;52.554;13.554;2023-02-21T05:44:02;8.90;99.90
23323;DHT22;11833;52.554;13.554;2023-02-21T05:46:31;8.90;99.90
23323;DHT22;11833;52.554;13.554;2023-02-21T05:49:00;8.90;99.90
23323;DHT22;11833;52.554;13.554;2023-02-21T05:51:30;8.90;99.90
23323;DHT22;11833;52.554;13.554;2023-02-21T05:53:58;8.90;99.90
23323;DHT22;11833;52.554;13.554;2023-02-21T05:56:24;8.90;99.90
23323;DHT22;11833;52.554;13.554;2023-02-21T05:58:50;8.80;99.90
23323;DHT22;11833;52.554;13.554;2023-02-21T06:01:16;8.90;99.90
23323;DHT22;11833;52.554;13.554;2023-02-21T06:03:42;8.80;99.90
23323;DHT22;11833;52.554;13.554;2023-02-21T06:06:08;8.80;99.90
23323;DHT22;11833;52.554;13.554;2023-02-21T06:08:45;8.80;99.90
23323;DHT22;11833;52.554;13.554;2023-02-21T06:11:11;8.80;99.90
23323;DHT22;11833;52.554;13.554;2023-02-21T06:13:37;8.80;99.90
23323;DHT22;11833;52.554;13.554;2023-02-21T06:16:04;8.80;99.90
23323;DHT22;11833;52.554;13.554;2023-02-21T06:18:29;8.90;99.90
23323;DHT22;11833;52.554;13.554;2023-02-21T06:20:55;8.90;99.90
23323;DHT22;11833;52.554;13.554;2023-02-21T06:23:21;8.90;99.90
23323;DHT22;11833;52.554;13.554;2023-02-21T06:25:46;9.00;99.90
23323;DHT22;11833;52.554;13.554;2023-02-21T06:28:12;8.90;99.90
23323;DHT22;11833;52.554;13.554;2023-02-21T06:30:38;9.00;99.90
23323;DHT22;11833;52.554;13.554;2023-02-21T06:33:04;9.00;99.90
23323;DHT22;11833;52.554;13.554;2023-02-21T06:35:29;9.00;99.90
23323;DHT22;11833;52.554;13.554;2023-02-21T06:37:55;9.00;99.90
23323;DHT22;11833;52.554;13.554;2023-02-21T06:40:21;9.00;99.90
23323;DHT22;11833;52.554;13.554;2023-02-21T06:42:46;9.00;99.90
23323;DHT22;11833;52.554;13.554;2023-02-21T06:45:12;9.00;99.90
23323;DHT22;11833;52.554;13.554;2023-02-21T06:47:38;9.00;99.90
23323;DHT22;11833;52.554;13.554;2023-02-21T06:50:04;9.00;99.90
23323;DHT22;11833;52.554;13.554;2023-02-21T06:52:31;9.10;99.90
23323;DHT22;11833;52.554;13.554;2023-02-21T06:54:56;9.10;99.90
23323;DHT22;11833;52.554;13.554;2023-02-21T06:57:22;9.20;99.90
23323;DHT22;11833;52.554;13.554;2023-02-21T06:59:48;9.20;99.90
23323;DHT22;11833;52.554;13.554;2023-02-21T07:02:18;9.10;99.90
23323;DHT22;11833;52.554;13.554;2023-02-21T07:04:46;9.10;99.90
23323;DHT22;11833;52.554;13.554;2023-02-21T07:07:12;9.10;99.90
23323;DHT22;11833;52.554;13.554;2023-02-21T07:09:38;9.20;99.90
23323;DHT22;11833;52.554;13.554;2023-02-21T07:12:03;9.20;99.90
23323;DHT22;11833;52.554;13.554;2023-02-21T07:14:29;9.00;99.90
23323;DHT22;11833;52.554;13.554;2023-02-21T07:16:55;9.00;99.90
23323;DHT22;11833;52.554;13.554;2023-02-21T07:19:21;9.10;99.90
23323;DHT22;11833;52.554;13.554;2023-02-21T07:21:47;9.00;99.90
23323;DHT22;11833;52.554;13.554;2023-02-21T07:24:12;9.00;99.90
23323;DHT22;11833;52.554;13.554;2023-02-21T07:26:38;9.10;99.90
23323;DHT22;11833;52.554;13.554;2023-02-21T07:29:05;9.20;99.90
23323;DHT22;11833;52.554;13.554;2023-02-21T07:31:31;9.20;99.90
23323;DHT22;11833;52.554;13.554;2023-02-21T07:33:57;9.30;99.90
23323;DHT22;11833;52.554;13.554;2023-02-21T07:36:23;9.20;99.90
23323;DHT22;11833;52.554;13.554;2023-02-21T07:38:49;9.20;99.90
23323;DHT22;11833;52.554;13.554;2023-02-21T07:41:16;9.20;99.90
23323;DHT22;11833;52.554;13.554;2023-02-21T07:43:42;9.20;99.90
23323;DHT22;11833;52.554;13.554;2023-02-21T07:46:11;9.30;99.90
23323;DHT22;11833;52.554;13.554;2023-02-21T07:48:38;9.40;99.90
23323;DHT22;11833;52.554;13.554;2023-02-21T07:51:06;9.40;99.90
23323;DHT22;11833;52.554;13.554;2023-02-21T07:53:32;9.40;99.90
23323;DHT22;11833;52.554;13.554;2023-02-21T07:55:59;9.40;99.90
23323;DHT22;11833;52.554;13.554;2023-02-21T07:58:24;9.40;99.90
23323;DHT22;11833;52.554;13.554;2023-02-21T08:00:50;9.40;99.90
23323;DHT22;11833;52.554;13.554;2023-02-21T08:03:17;9.50;99.90
23323;DHT22;11833;52.554;13.554;2023-02-21T08:05:43;9.60;99.90
23323;DHT22;11833;52.554;13.554;2023-02-21T08:08:10;9.60;99.90
23323;DHT22;11833;52.554;13.554;2023-02-21T08:10:37;9.60;99.90
23323;DHT22;11833;52.554;13.554;2023-02-21T08:13:03;9.60;99.90
23323;DHT22;11833;52.554;13.554;2023-02-21T08:15:29;9.60;99.90
23323;DHT22;11833;52.554;13.554;2023-02-21T08:17:55;9.60;99.90
23323;DHT22;11833;52.554;13.554;2023-02-21T08:20:20;9.70;99.90
23323;DHT22;11833;52.554;13.554;2023-02-21T08:22:46;9.90;99.90
23323;DHT22;11833;52.554;13.554;2023-02-21T08:25:13;9.90;99.90
23323;DHT22;11833;52.554;13.554;2023-02-21T08:27:41;10.00;99.90
23323;DHT22;11833;52.554;13.554;2023-02-21T08:30:09;10.10;99.90
23323;DHT22;11833;52.554;13.554;2023-02-21T08:32:36;10.00;99.90
23323;DHT22;11833;52.554;13.554;2023-02-21T08:35:02;10.00;99.90
23323;DHT22;11833;52.554;13.554;2023-02-21T08:37:30;10.00;99.90
23323;DHT22;11833;52.554;13.554;2023-02-21T08:39:58;10.00;99.90
23323;DHT22;11833;52.554;13.554;2023-02-21T08:42:24;9.90;99.90
23323;DHT22;11833;52.554;13.554;2023-02-21T08:44:51;10.10;99.90
23323;DHT22;11833;52.554;13.554;2023-02-21T08:47:17;10.10;99.90
23323;DHT22;11833;52.554;13.554;2023-02-21T08:49:47;10.20;99.90
23323;DHT22;11833;52.554;13.554;2023-02-21T08:52:14;10.30;99.90
23323;DHT22;11833;52.554;13.554;2023-02-21T08:54:41;10.20;99.90
23323;DHT22;11833;52.554;13.554;2023-02-21T08:57:08;10.20;99.90
23323;DHT22;11833;52.554;13.554;2023-02-21T08:59:34;10.00;99.90
23323;DHT22;11833;52.554;13.554;2023-02-21T09:02:02;10.10;99.90
23323;DHT22;11833;52.554;13.554;2023-02-21T09:04:28;10.20;99.90
23323;DHT22;11833;52.554;13.554;2023-02-21T09:06:54;10.10;99.90
23323;DHT22;11833;52.554;13.554;2023-02-21T09:09:20;10.30;99.90
23323;DHT22;11833;52.554;13.554;2023-02-21T09:11:46;10.10;99.90
23323;DHT22;11833;52.554;13.554;2023-02-21T09:14:15;10.20;99.90
23323;DHT22;11833;52.554;13.554;2023-02-21T09:16:41;10.20;99.90
23323;DHT22;11833;52.554;13.554;2023-02-21T09:19:08;10.10;99.90
23323;DHT22;11833;52.554;13.554;2023-02-21T09:21:34;10.10;99.90
23323;DHT22;11833;52.554;13.554;2023-02-21T09:24:00;10.00;99.90
23323;DHT22;11833;52.554;13.554;2023-02-21T09:26:27;10.00;99.90
23323;DHT22;11833;52.554;13.554;2023-02-21T09:28:56;10.20;99.90
23323;DHT22;11833;52.554;13.554;2023-02-21T09:31:22;10.10;99.90
23323;DHT22;11833;52.554;13.554;2023-02-21T09:33:48;10.10;99.90
23323;DHT22;11833;52.554;13.554;2023-02-21T09:36:15;10.10;99.90
23323;DHT22;11833;52.554;13.554;2023-02-21T09:38:41;10.10;99.90
23323;DHT22;11833;52.554;13.554;2023-02-21T09:41:10;10.10;99.90
23323;DHT22;11833;52.554;13.554;2023-02-21T09:43:40;10.10;99.90
23323;DHT22;11833;52.554;13.554;2023-02-21T09:46:13;10.20;99.90
23323;DHT22;11833;52.554;13.554;2023-02-21T09:48:42;10.20;99.90
23323;DHT22;11833;52.554;13.554;2023-02-21T09:51:10;10.20;99.90
23323;DHT22;11833;52.554;13.554;2023-02-21T09:53:39;10.30;99.90
23323;DHT22;11833;52.554;13.554;2023-02-21T09:56:19;10.30;99.90
23323;DHT22;11833;52.554;13.554;2023-02-21T09:58:48;10.40;99.90
23323;DHT22;11833;52.554;13.554;2023-02-21T10:16:20;10.50;99.90
23323;DHT22;11833;52.554;13.554;2023-02-21T10:21:47;10.80;99.90
23323;DHT22;11833;52.554;13.554;2023-02-21T10:24:19;10.90;99.90
23323;DHT22;11833;52.554;13.554;2023-02-21T10:29:49;11.00;99.90
23323;DHT22;11833;52.554;13.554;2023-02-21T10:32:20;11.00;99.90
23323;DHT22;11833;52.554;13.554;2023-02-21T10:34:48;11.10;99.90
23323;DHT22;11833;52.554;13.554;2023-02-21T10:43:15;10.90;99.90
23323;DHT22;11833;52.554;13.554;2023-02-21T10:46:03;11.30;99.90
23323;DHT22;11833;52.554;13.554;2023-02-21T10:48:36;11.30;99.90
23323;DHT22;11833;52.554;13.554;2023-02-21T10:51:15;11.20;99.90
23323;DHT22;11833;52.554;13.554;2023-02-21T10:53:45;11.10;99.90
23323;DHT22;11833;52.554;13.554;2023-02-21T10:58:58;11.00;99.90
23323;DHT22;11833;52.554;13.554;2023-02-21T11:03:58;11.20;99.90
23323;DHT22;11833;52.554;13.554;2023-02-21T11:06:31;11.40;99.90
23323;DHT22;11833;52.554;13.554;2023-02-21T11:08:59;11.50;99.90
23323;DHT22;11833;52.554;13.554;2023-02-21T11:11:35;11.40;99.90
23323;DHT22;11833;52.554;13.554;2023-02-21T11:16:43;11.30;99.90
23323;DHT22;11833;52.554;13.554;2023-02-21T11:19:12;11.30;99.90
23323;DHT22;11833;52.554;13.554;2023-02-21T11:21:40;11.20;99.90
23323;DHT22;11833;52.554;13.554;2023-02-21T11:24:07;11.10;99.90
23323;DHT22;11833;52.554;13.554;2023-02-21T11:26:47;11.10;99.90
23323;DHT22;11833;52.554;13.554;2023-02-21T11:29:19;11.20;99.90
23323;DHT22;11833;52.554;13.554;2023-02-21T11:31:48;11.30;99.90
23323;DHT22;11833;52.554;13.554;2023-02-21T11:34:14;11.80;99.90
23323;DHT22;11833;52.554;13.554;2023-02-21T11:36:43;12.30;99.90
23323;DHT22;11833;52.554;13.554;2023-02-21T11:39:17;12.40;99.90
23323;DHT22;11833;52.554;13.554;2023-02-21T11:44:41;12.40;99.90
23323;DHT22;11833;52.554;13.554;2023-02-21T11:47:10;13.00;99.90
23323;DHT22;11833;52.554;13.554;2023-02-21T11:56:01;12.90;99.90
23323;DHT22;11833;52.554;13.554;2023-02-21T11:58:49;12.90;99.90
23323;DHT22;11833;52.554;13.554;2023-02-21T12:01:39;12.50;99.90
23323;DHT22;11833;52.554;13.554;2023-02-21T12:04:29;12.70;98.20
23323;DHT22;11833;52.554;13.554;2023-02-21T12:09:58;13.20;96.80
23323;DHT22;11833;52.554;13.554;2023-02-21T12:12:45;13.70;96.60
23323;DHT22;11833;52.554;13.554;2023-02-21T12:15:32;14.20;96.30
23323;DHT22;11833;52.554;13.554;2023-02-21T12:31:57;13.70;94.10
23323;DHT22;11833;52.554;13.554;2023-02-21T12:41:01;14.50;89.10
23323;DHT22;11833;52.554;13.554;2023-02-21T12:44:26;14.30;89.50
23323;DHT22;11833;52.554;13.554;2023-02-21T12:47:57;13.80;88.90
23323;DHT22;11833;52.554;13.554;2023-02-21T12:50:37;13.60;89.40
23323;DHT22;11833;52.554;13.554;2023-02-21T12:55:45;13.40;91.40
23323;DHT22;11833;52.554;13.554;2023-02-21T13:01:38;13.00;89.70
23323;DHT22;11833;52.554;13.554;2023-02-21T13:04:22;12.80;88.90
23323;DHT22;11833;52.554;13.554;2023-02-21T13:07:12;12.60;90.10
23323;DHT22;11833;52.554;13.554;2023-02-21T13:09:49;12.60;90.80
23323;DHT22;11833;52.554;13.554;2023-02-21T13:15:21;12.40;91.10
23323;DHT22;11833;52.554;13.554;2023-02-21T13:24:27;12.20;91.00
23323;DHT22;11833;52.554;13.554;2023-02-21T13:30:41;12.00;90.30
23323;DHT22;11833;52.554;13.554;2023-02-21T13:33:27;12.00;90.10
23323;DHT22;11833;52.554;13.554;2023-02-21T13:39:09;11.90;89.50
23323;DHT22;11833;52.554;13.554;2023-02-21T13:41:38;12.10;90.20
23323;DHT22;11833;52.554;13.554;2023-02-21T13:44:10;12.00;90.20
23323;DHT22;11833;52.554;13.554;2023-02-21T13:57:48;12.00;90.20
23323;DHT22;11833;52.554;13.554;2023-02-21T14:08:43;11.70;90.40
23323;DHT22;11833;52.554;13.554;2023-02-21T14:11:20;11.90;90.20
23323;DHT22;11833;52.554;13.554;2023-02-21T14:13:49;11.50;88.80
23323;DHT22;11833;52.554;13.554;2023-02-21T14:22:10;11.20;90.80
23323;DHT22;11833;52.554;13.554;2023-02-21T14:24:47;11.00;91.20
23323;DHT22;11833;52.554;13.554;2023-02-21T14:32:45;10.90;91.80
23323;DHT22;11833;52.554;13.554;2023-02-21T14:35:42;11.00;92.20
23323;DHT22;11833;52.554;13.554;2023-02-21T14:38:23;11.30;91.70
23323;DHT22;11833;52.554;13.554;2023-02-21T14:41:08;11.30;91.60
23323;DHT22;11833;52.554;13.554;2023-02-21T14:43:57;11.20;91.40
23323;DHT22;11833;52.554;13.554;2023-02-21T14:52:09;11.20;91.80
23323;DHT22;11833;52.554;13.554;2023-02-21T15:06:35;10.90;92.50
23323;DHT22;11833;52.554;13.554;2023-02-21T15:09:19;10.90;92.50
23323;DHT22;11833;52.554;13.554;2023-02-21T15:11:46;11.00;92.30
23323;DHT22;11833;52.554;13.554;2023-02-21T15:14:20;10.90;92.20
23323;DHT22;11833;52.554;13.554;2023-02-21T15:16:56;10.90;92.30
23323;DHT22;11833;52.554;13.554;2023-02-21T15:19:32;10.90;92.30
23323;DHT22;11833;52.554;13.554;2023-02-21T15:22:26;10.80;92.60
23323;DHT22;11833;52.554;13.554;2023-02-21T15:27:36;10.70;92.40
23323;DHT22;11833;52.554;13.554;2023-02-21T15:33:18;10.70;93.30
23323;DHT22;11833;52.554;13.554;2023-02-21T15:35:51;10.50;92.90
23323;DHT22;11833;52.554;13.554;2023-02-21T15:38:32;10.40;93.50
23323;DHT22;11833;52.554;13.554;2023-02-21T15:43:55;10.30;94.60
23323;DHT22;11833;52.554;13.554;2023-02-21T15:46:25;10.30;93.90
23323;DHT22;11833;52.554;13.554;2023-02-21T15:48:55;10.30;94.30
23323;DHT22;11833;52.554;13.554;2023-02-21T15:51:24;10.40;94.00
23323;DHT22;11833;52.554;13.554;2023-02-21T15:54:19;10.30;94.20
23323;DHT22;11833;52.554;13.554;2023-02-21T15:57:00;10.30;94.40
23323;DHT22;11833;52.554;13.554;2023-02-21T15:59:28;10.30;94.80
23323;DHT22;11833;52.554;13.554;2023-02-21T16:02:12;10.30;94.20
23323;DHT22;11833;52.554;13.554;2023-02-21T16:04:41;10.30;94.80
23323;DHT22;11833;52.554;13.554;2023-02-21T16:07:29;10.20;94.50
23323;DHT22;11833;52.554;13.554;2023-02-21T16:10:13;10.10;95.30
23323;DHT22;11833;52.554;13.554;2023-02-21T16:12:43;10.10;95.20
23323;DHT22;11833;52.554;13.554;2023-02-21T16:15:32;10.00;95.50
23323;DHT22;11833;52.554;13.554;2023-02-21T16:18:04;9.90;95.60
23323;DHT22;11833;52.554;13.554;2023-02-21T16:20:36;9.70;96.10
23323;DHT22;11833;52.554;13.554;2023-02-21T16:23:42;9.70;96.40
23323;DHT22;11833;52.554;13.554;2023-02-21T16:28:39;9.80;96.30
23323;DHT22;11833;52.554;13.554;2023-02-21T16:31:07;9.70;96.70
23323;DHT22;11833;52.554;13.554;2023-02-21T16:33:38;9.60;97.20
23323;DHT22;11833;52.554;13.554;2023-02-21T16:36:07;9.50;97.00
23323;DHT22;11833;52.554;13.554;2023-02-21T16:38:42;9.50;97.60
23323;DHT22;11833;52.554;13.554;2023-02-21T16:41:12;9.60;98.00
23323;DHT22;11833;52.554;13.554;2023-02-21T16:43:38;9.60;97.80
23323;DHT22;11833;52.554;13.554;2023-02-21T16:46:04;9.50;98.00
23323;DHT22;11833;52.554;13.554;2023-02-21T16:48:30;9.50;98.30
23323;DHT22;11833;52.554;13.554;2023-02-21T16:51:04;9.40;98.30
23323;DHT22;11833;52.554;13.554;2023-02-21T16:53:34;9.50;98.40
23323;DHT22;11833;52.554;13.554;2023-02-21T16:56:01;9.40;98.90
23323;DHT22;11833;52.554;13.554;2023-02-21T16:58:36;9.30;99.20
23323;DHT22;11833;52.554;13.554;2023-02-21T17:01:12;9.30;99.50
23323;DHT22;11833;52.554;13.554;2023-02-21T17:03:39;9.40;99.50
23323;DHT22;11833;52.554;13.554;2023-02-21T17:06:16;9.30;99.70
23323;DHT22;11833;52.554;13.554;2023-02-21T17:08:43;9.30;99.90
23323;DHT22;11833;52.554;13.554;2023-02-21T17:11:09;9.30;99.70
23323;DHT22;11833;52.554;13.554;2023-02-21T17:13:35;9.20;99.60
23323;DHT22;11833;52.554;13.554;2023-02-21T17:16:00;9.10;99.90
23323;DHT22;11833;52.554;13.554;2023-02-21T17:18:26;8.90;99.90
23323;DHT22;11833;52.554;13.554;2023-02-21T17:20:54;8.90;99.90
23323;DHT22;11833;52.554;13.554;2023-02-21T17:23:20;9.00;99.90
23323;DHT22;11833;52.554;13.554;2023-02-21T17:25:46;8.90;99.90
23323;DHT22;11833;52.554;13.554;2023-02-21T17:28:12;8.90;99.90
23323;DHT22;11833;52.554;13.554;2023-02-21T17:30:37;8.90;99.90
23323;DHT22;11833;52.554;13.554;2023-02-21T17:33:03;8.80;99.90
23323;DHT22;11833;52.554;13.554;2023-02-21T17:35:30;8.70;99.90
23323;DHT22;11833;52.554;13.554;2023-02-21T17:37:56;8.70;99.90
23323;DHT22;11833;52.554;13.554;2023-02-21T17:40:26;8.70;99.90
23323;DHT22;11833;52.554;13.554;2023-02-21T17:42:52;8.60;99.90
23323;DHT22;11833;52.554;13.554;2023-02-21T17:45:20;8.60;99.90
23323;DHT22;11833;52.554;13.554;2023-02-21T17:47:47;8.60;99.90
23323;DHT22;11833;52.554;13.554;2023-02-21T17:50:14;8.60;99.90
23323;DHT22;11833;52.554;13.554;2023-02-21T17:52:41;8.60;99.90
23323;DHT22;11833;52.554;13.554;2023-02-21T17:55:10;8.60;99.90
23323;DHT22;11833;52.554;13.554;2023-02-21T17:57:42;8.50;99.90
23323;DHT22;11833;52.554;13.554;2023-02-21T18:00:15;8.50;99.90
23323;DHT22;11833;52.554;13.554;2023-02-21T18:02:46;8.50;99.90
23323;DHT22;11833;52.554;13.554;2023-02-21T18:05:13;8.50;99.90
23323;DHT22;11833;52.554;13.554;2023-02-21T18:07:39;8.50;99.90
23323;DHT22;11833;52.554;13.554;2023-02-21T18:10:05;8.50;99.90
23323;DHT22;11833;52.554;13.554;2023-02-21T18:12:32;8.40;99.90
23323;DHT22;11833;52.554;13.554;2023-02-21T18:14:58;8.40;99.90
23323;DHT22;11833;52.554;13.554;2023-02-21T18:17:24;8.30;99.90
23323;DHT22;11833;52.554;13.554;2023-02-21T18:19:50;8.30;99.90
23323;DHT22;11833;52.554;13.554;2023-02-21T18:22:16;8.30;99.90
23323;DHT22;11833;52.554;13.554;2023-02-21T18:24:42;8.30;99.90
23323;DHT22;11833;52.554;13.554;2023-02-21T18:27:11;8.30;99.90
23323;DHT22;11833;52.554;13.554;2023-02-21T18:29:39;8.20;99.90
23323;DHT22;11833;52.554;13.554;2023-02-21T18:32:05;8.20;99.90
23323;DHT22;11833;52.554;13.554;2023-02-21T18:34:31;8.30;99.90
23323;DHT22;11833;52.554;13.554;2023-02-21T18:37:00;8.30;99.90
23323;DHT22;11833;52.554;13.554;2023-02-21T18:39:25;8.40;99.90
23323;DHT22;11833;52.554;13.554;2023-02-21T18:41:51;8.40;99.90
23323;DHT22;11833;52.554;13.554;2023-02-21T18:44:18;8.50;99.90
23323;DHT22;11833;52.554;13.554;2023-02-21T18:46:54;8.50;99.90
23323;DHT22;11833;52.554;13.554;2023-02-21T18:49:21;8.40;99.90
23323;DHT22;11833;52.554;13.554;2023-02-21T18:51:48;8.30;99.90
23323;DHT22;11833;52.554;13.554;2023-02-21T18:54:14;8.30;99.90
23323;DHT22;11833;52.554;13.554;2023-02-21T18:56:48;8.20;99.90
23323;DHT22;11833;52.554;13.554;2023-02-21T18:59:19;8.20;99.90
23323;DHT22;11833;52.554;13.554;2023-02-21T19:01:51;8.20;99.90
23323;DHT22;11833;52.554;13.554;2023-02-21T19:04:18;8.10;99.90
23323;DHT22;11833;52.554;13.554;2023-02-21T19:06:44;8.10;99.90
23323;DHT22;11833;52.554;13.554;2023-02-21T19:09:10;8.10;99.90
23323;DHT22;11833;52.554;13.554;2023-02-21T19:11:37;8.10;99.90
23323;DHT22;11833;52.554;13.554;2023-02-21T19:14:03;8.20;99.90
23323;DHT22;11833;52.554;13.554;2023-02-21T19:16:30;8.20;99.90
23323;DHT22;11833;52.554;13.554;2023-02-21T19:18:57;8.20;99.90
23323;DHT22;11833;52.554;13.554;2023-02-21T19:21:24;8.20;99.90
23323;DHT22;11833;52.554;13.554;2023-02-21T19:23:51;8.20;99.90
23323;DHT22;11833;52.554;13.554;2023-02-21T19:26:17;8.30;99.90
23323;DHT22;11833;52.554;13.554;2023-02-21T19:28:43;8.40;99.90
23323;DHT22;11833;52.554;13.554;2023-02-21T19:31:10;8.40;99.90
23323;DHT22;11833;52.554;13.554;2023-02-21T19:33:38;8.40;99.90
23323;DHT22;11833;52.554;13.554;2023-02-21T19:36:06;8.30;99.90
23323;DHT22;11833;52.554;13.554;2023-02-21T19:38:32;8.40;99.90
23323;DHT22;11833;52.554;13.554;2023-02-21T19:40:58;8.40;99.90
23323;DHT22;11833;52.554;13.554;2023-02-21T19:43:24;8.30;99.90
23323;DHT22;11833;52.554;13.554;2023-02-21T19:45:50;8.30;99.90